createdAt,value
2019-03-22T00:00:41.855Z,59.17
2019-03-22T00:03:09.830Z,65.20
2019-03-22T00:05:37.744Z,68.57
2019-03-22T00:08:05.919Z,65.57
2019-03-22T00:10:33.856Z,59.37
2019-03-22T00:13:01.973Z,60.83
2019-03-22T00:15:30.226Z,68.43
2019-03-22T00:17:58.437Z,63.47
2019-03-22T00:20:26.308Z,61.47
2019-03-22T00:22:54.158Z,68.20
2019-03-22T00:25:22.008Z,65.57
2019-03-22T00:27:50.143Z,65.67
2019-03-22T00:30:18.064Z,68.40
2019-03-22T00:32:46.147Z,68.17
2019-03-22T00:35:14.354Z,62.93
2019-03-22T00:37:42.538Z,63.50
2019-03-22T00:40:10.785Z,64.97
2019-03-22T00:42:39.327Z,61.67
2019-03-22T00:45:07.374Z,63.27
2019-03-22T00:47:35.232Z,63.03
2019-03-22T00:50:03.991Z,63.47
2019-03-22T00:52:31.800Z,67.20
2019-03-22T00:54:59.650Z,62.03
2019-03-22T00:57:28.880Z,66.10
2019-03-22T00:59:56.866Z,60.20
2019-03-22T01:02:24.831Z,65.23
2019-03-22T01:04:52.777Z,63.60
2019-03-22T01:07:20.614Z,65.23
2019-03-22T01:09:48.554Z,58.57
2019-03-22T01:12:16.945Z,64.60
2019-03-22T01:14:44.936Z,62.13
2019-03-22T01:17:12.807Z,58.83
2019-03-22T01:19:40.789Z,62.57
2019-03-22T01:22:08.720Z,57.10
2019-03-22T01:24:36.899Z,57.63
2019-03-22T01:27:04.719Z,67.87
2019-03-22T01:29:32.657Z,65.73
2019-03-22T01:32:00.902Z,63.83
2019-03-22T01:34:29.061Z,66.47
2019-03-22T01:36:57.277Z,63.67
2019-03-22T01:39:25.319Z,70.67
2019-03-22T01:41:53.146Z,61.17
2019-03-22T01:44:21.088Z,63.63
2019-03-22T01:46:48.907Z,62.17
2019-03-22T01:49:16.772Z,67.10
2019-03-22T01:51:44.622Z,62.10
2019-03-22T01:54:12.569Z,68.40
2019-03-22T01:56:40.686Z,64.50
2019-03-22T01:59:08.889Z,63.07
2019-03-22T02:01:36.722Z,62.57
2019-03-22T02:04:04.901Z,67.07
2019-03-22T02:06:32.739Z,66.43
2019-03-22T02:09:00.948Z,71.87
2019-03-22T02:11:29.128Z,70.20
2019-03-22T02:13:56.967Z,72.03
2019-03-22T02:16:25.079Z,71.23
2019-03-22T02:18:53.207Z,69.10
2019-03-22T02:21:21.051Z,68.17
2019-03-22T02:23:48.808Z,68.40
2019-03-22T02:26:16.627Z,65.53
2019-03-22T02:28:44.579Z,65.47
2019-03-22T02:31:12.413Z,64.43
2019-03-22T02:33:40.604Z,69.93
2019-03-22T02:36:09.011Z,67.47
2019-03-22T02:38:37.536Z,69.20
2019-03-22T02:41:05.403Z,68.20
2019-03-22T02:43:33.898Z,61.50
2019-03-22T02:46:02.139Z,68.83
2019-03-22T02:48:30.362Z,65.67
2019-03-22T02:50:58.211Z,65.60
2019-03-22T02:53:26.386Z,64.03
2019-03-22T02:55:54.674Z,66.27
2019-03-22T02:58:22.657Z,63.97
2019-03-22T03:00:50.571Z,67.40
2019-03-22T03:03:18.491Z,69.20
2019-03-22T03:05:46.697Z,70.00
2019-03-22T03:08:15.113Z,71.40
2019-03-22T03:10:42.940Z,73.90
2019-03-22T03:13:10.888Z,85.83
2019-03-22T03:15:38.754Z,91.33
2019-03-22T03:18:06.688Z,93.43
2019-03-22T03:20:34.632Z,91.47
2019-03-22T03:23:02.787Z,107.77
2019-03-22T03:25:31.362Z,91.47
2019-03-22T03:27:59.301Z,108.40
2019-03-22T03:30:27.240Z,224.10
2019-03-22T03:32:55.475Z,293.63
2019-03-22T03:35:23.712Z,177.30
2019-03-22T03:37:51.641Z,173.47
2019-03-22T03:40:19.471Z,217.10
2019-03-22T03:42:47.720Z,263.77
2019-03-22T03:45:28.906Z,346.47
2019-03-22T03:47:57.341Z,258.07
2019-03-22T03:50:25.188Z,157.97
2019-03-22T03:52:53.039Z,227.20
2019-03-22T03:55:20.975Z,102.80
2019-03-22T03:57:49.487Z,206.67
2019-03-22T04:00:17.631Z,118.07
2019-03-22T04:02:45.469Z,173.97
2019-03-22T04:05:14.575Z,130.30
2019-03-22T04:07:42.727Z,230.47
2019-03-22T04:10:10.561Z,235.10
2019-03-22T04:12:38.402Z,122.53
2019-03-22T04:15:06.457Z,208.50
2019-03-22T04:17:34.744Z,212.50
2019-03-22T04:20:03.078Z,294.23
2019-03-22T04:22:30.891Z,179.03
2019-03-22T04:24:58.827Z,280.10
2019-03-22T04:27:26.655Z,324.03
2019-03-22T04:29:54.762Z,213.63
2019-03-22T04:32:22.696Z,238.33
2019-03-22T04:34:50.613Z,266.57
2019-03-22T04:37:18.415Z,327.47
2019-03-22T04:39:46.509Z,147.10
2019-03-22T04:42:15.163Z,251.23
2019-03-22T04:44:43.295Z,95.47
2019-03-22T04:47:14.283Z,184.30
2019-03-22T04:49:43.265Z,237.57
2019-03-22T04:52:11.696Z,203.43
2019-03-22T04:54:40.609Z,248.27
2019-03-22T04:57:11.630Z,200.00
2019-03-22T04:59:41.762Z,161.70
2019-03-22T05:02:10.000Z,177.10
2019-03-22T05:04:40.154Z,145.23
2019-03-22T05:07:08.447Z,173.57
2019-03-22T05:09:36.773Z,176.10
2019-03-22T05:12:06.604Z,248.03
2019-03-22T05:14:37.259Z,184.93
2019-03-22T05:17:06.981Z,228.00
2019-03-22T05:19:37.717Z,105.20
2019-03-22T05:22:08.654Z,299.53
2019-03-22T05:24:38.454Z,147.47
2019-03-22T05:27:07.756Z,168.50
2019-03-22T05:29:38.838Z,191.73
2019-03-22T05:32:08.294Z,105.93
2019-03-22T05:34:36.355Z,143.60
2019-03-22T05:37:04.429Z,170.33
2019-03-22T05:39:32.544Z,256.37
2019-03-22T05:42:00.752Z,142.87
2019-03-22T05:44:28.596Z,140.13
2019-03-22T05:46:56.471Z,146.07
2019-03-22T05:49:24.593Z,160.93
2019-03-22T05:51:52.409Z,151.97
2019-03-22T05:54:20.331Z,145.53
2019-03-22T05:56:48.960Z,224.70
2019-03-22T05:59:16.893Z,301.23
2019-03-22T06:01:45.433Z,275.03
2019-03-22T06:04:13.582Z,109.23
2019-03-22T06:06:41.670Z,165.03
2019-03-22T06:09:09.753Z,157.30
2019-03-22T06:11:38.258Z,176.37
2019-03-22T06:14:07.055Z,271.23
2019-03-22T06:16:35.253Z,234.07
2019-03-22T06:19:03.369Z,226.63
2019-03-22T06:21:31.353Z,258.10
2019-03-22T06:23:59.324Z,181.60
2019-03-22T06:26:27.257Z,190.47
2019-03-22T06:28:55.084Z,187.07
2019-03-22T06:31:26.317Z,254.50
2019-03-22T06:33:54.159Z,304.23
2019-03-22T06:36:24.133Z,230.73
2019-03-22T06:38:52.385Z,123.23
2019-03-22T06:41:20.498Z,203.50
2019-03-22T06:43:48.366Z,227.50
2019-03-22T06:46:16.337Z,265.40
2019-03-22T06:48:44.338Z,247.63
2019-03-22T06:51:12.464Z,194.47
2019-03-22T06:53:40.393Z,192.90
2019-03-22T06:56:08.276Z,198.97
2019-03-22T06:58:36.205Z,142.87
2019-03-22T07:01:04.303Z,192.70
2019-03-22T07:03:32.500Z,224.37
2019-03-22T07:06:00.633Z,137.90
2019-03-22T07:08:28.464Z,266.97
2019-03-22T07:10:56.368Z,209.10
2019-03-22T07:13:24.311Z,264.63
2019-03-22T07:15:52.562Z,217.83
2019-03-22T07:18:20.411Z,114.73
2019-03-22T07:20:48.317Z,152.50
2019-03-22T07:23:16.162Z,232.10
2019-03-22T07:25:44.281Z,182.10
2019-03-22T07:28:12.788Z,151.17
2019-03-22T07:30:40.973Z,185.07
2019-03-22T07:33:09.127Z,197.17
2019-03-22T07:35:37.308Z,251.53
2019-03-22T07:38:05.245Z,194.17
2019-03-22T07:40:33.722Z,248.70
2019-03-22T07:43:01.785Z,146.70
2019-03-22T07:45:29.913Z,170.13
2019-03-22T07:47:57.864Z,252.30
2019-03-22T07:50:25.979Z,172.77
2019-03-22T07:52:54.200Z,166.87
2019-03-22T07:55:22.240Z,237.50
2019-03-22T07:57:50.145Z,244.63
2019-03-22T08:00:29.888Z,189.07
2019-03-22T08:02:47.968Z,174.03
2019-03-22T08:05:15.801Z,186.93
2019-03-22T08:07:43.992Z,134.80
2019-03-22T08:10:12.128Z,145.43
2019-03-22T08:12:40.080Z,99.27
2019-03-22T08:15:08.640Z,107.70
2019-03-22T08:17:36.651Z,75.57
2019-03-22T08:20:05.928Z,87.67
2019-03-22T08:22:33.781Z,73.83
2019-03-22T08:25:01.630Z,69.23
2019-03-22T08:27:29.562Z,78.50
2019-03-22T08:29:57.519Z,76.03
2019-03-22T08:32:25.698Z,68.87
2019-03-22T08:34:53.571Z,80.83
2019-03-22T08:37:21.486Z,73.00
2019-03-22T08:39:49.428Z,69.70
2019-03-22T08:42:17.377Z,65.23
2019-03-22T08:44:45.797Z,64.70
2019-03-22T08:47:14.102Z,66.87
2019-03-22T08:49:42.428Z,66.03
2019-03-22T08:52:10.787Z,68.00
2019-03-22T08:54:38.729Z,69.97
2019-03-22T08:57:06.681Z,72.63
2019-03-22T08:59:34.602Z,67.60
2019-03-22T09:02:02.476Z,65.73
2019-03-22T09:04:30.367Z,58.93
2019-03-22T09:06:59.083Z,65.40
2019-03-22T09:09:27.130Z,71.93
2019-03-22T09:11:55.085Z,66.23
2019-03-22T09:14:23.068Z,69.47
2019-03-22T09:16:50.953Z,65.50
2019-03-22T09:19:18.842Z,62.07
2019-03-22T09:21:46.711Z,66.73
2019-03-22T09:24:14.622Z,61.27
2019-03-22T09:26:47.501Z,69.20
2019-03-22T09:29:12.825Z,67.70
2019-03-22T09:31:40.657Z,65.53
2019-03-22T09:34:08.513Z,70.63
2019-03-22T09:36:36.664Z,75.50
2019-03-22T09:39:07.070Z,64.80
2019-03-22T09:41:35.245Z,70.03
2019-03-22T09:44:03.623Z,66.23
2019-03-22T09:46:31.843Z,70.57
2019-03-22T09:48:59.760Z,67.90
2019-03-22T09:51:27.992Z,61.43
2019-03-22T09:53:55.816Z,61.37
2019-03-22T09:56:23.776Z,65.20
2019-03-22T09:58:52.005Z,65.40
2019-03-22T10:01:23.846Z,59.23
2019-03-22T10:03:50.216Z,57.37
2019-03-22T10:06:18.152Z,60.77
2019-03-22T10:08:46.148Z,54.37
2019-03-22T10:11:14.167Z,50.47
2019-03-22T10:13:42.345Z,53.60
2019-03-22T10:16:10.254Z,53.40
2019-03-22T10:18:38.575Z,53.33
2019-03-22T10:21:06.566Z,48.40
2019-03-22T10:23:34.712Z,41.73
2019-03-22T10:26:03.037Z,42.70
2019-03-22T10:28:30.892Z,41.00
2019-03-22T10:30:58.826Z,39.63
2019-03-22T10:33:26.815Z,39.57
2019-03-22T10:35:54.720Z,46.90
2019-03-22T10:38:30.790Z,39.00
2019-03-22T10:40:52.944Z,38.38
2019-03-22T10:43:21.152Z,41.13
2019-03-22T10:45:49.369Z,34.45
2019-03-22T10:48:17.615Z,34.25
2019-03-22T10:50:46.073Z,37.28
2019-03-22T10:53:14.320Z,36.40
2019-03-22T10:55:42.538Z,38.35
2019-03-22T10:58:20.777Z,34.67
2019-03-22T11:00:40.147Z,35.28
2019-03-22T11:03:08.375Z,32.80
2019-03-22T11:05:36.417Z,33.18
2019-03-22T11:08:04.628Z,31.05
2019-03-22T11:10:32.993Z,31.23
2019-03-22T11:13:00.876Z,28.30
2019-03-22T11:15:28.777Z,29.05
2019-03-22T11:17:56.903Z,25.97
2019-03-22T11:20:24.726Z,25.90
2019-03-22T11:22:52.587Z,24.72
2019-03-22T11:25:20.412Z,29.48
2019-03-22T11:27:48.528Z,25.92
2019-03-22T11:30:17.093Z,27.90
2019-03-22T11:32:45.021Z,26.97
2019-03-22T11:35:13.089Z,27.27
2019-03-22T11:37:41.023Z,25.70
2019-03-22T11:40:10.100Z,28.62
2019-03-22T11:42:38.170Z,28.85
2019-03-22T11:45:07.877Z,29.60
2019-03-22T11:47:36.090Z,24.12
2019-03-22T11:50:05.409Z,25.02
2019-03-22T11:52:34.018Z,23.27
2019-03-22T11:55:01.962Z,23.73
2019-03-22T11:57:30.183Z,25.57
2019-03-22T11:59:58.298Z,27.67
2019-03-22T12:02:26.255Z,26.90
2019-03-22T12:04:54.098Z,24.70
2019-03-22T12:07:22.223Z,26.65
2019-03-22T12:09:50.046Z,27.55
2019-03-22T12:12:18.046Z,27.98
2019-03-22T12:14:45.893Z,28.42
2019-03-22T12:17:13.823Z,23.65
2019-03-22T12:19:41.908Z,25.45
2019-03-22T12:22:09.781Z,26.17
2019-03-22T12:24:37.641Z,26.73
2019-03-22T12:27:05.602Z,24.90
2019-03-22T12:29:34.361Z,25.65
2019-03-22T12:32:02.300Z,19.55
2019-03-22T12:34:30.355Z,22.10
2019-03-22T12:36:58.215Z,23.38
2019-03-22T12:39:26.126Z,26.05
2019-03-22T12:41:53.965Z,26.25
2019-03-22T12:44:21.798Z,21.57
2019-03-22T12:46:49.656Z,19.90
2019-03-22T12:49:17.587Z,21.48
2019-03-22T12:51:45.436Z,20.20
2019-03-22T12:54:13.275Z,18.15
2019-03-22T12:56:41.214Z,18.30
2019-03-22T12:59:09.173Z,19.20
2019-03-22T13:01:37.084Z,19.65
2019-03-22T13:04:04.925Z,19.52
2019-03-22T13:06:32.744Z,20.27
2019-03-22T13:09:00.581Z,16.73
2019-03-22T13:11:29.080Z,17.90
2019-03-22T13:13:56.918Z,18.90
2019-03-22T13:16:24.730Z,18.90
2019-03-22T13:18:52.585Z,18.35
2019-03-22T13:21:20.403Z,19.27
2019-03-22T13:23:48.521Z,16.42
2019-03-22T13:26:16.469Z,17.82
2019-03-22T13:28:44.326Z,18.87
2019-03-22T13:31:12.511Z,19.23
2019-03-22T13:33:40.326Z,16.70
2019-03-22T13:36:08.269Z,24.32
2019-03-22T13:38:36.178Z,20.65
2019-03-22T13:41:04.060Z,20.62
2019-03-22T13:43:32.002Z,21.70
2019-03-22T13:45:59.821Z,20.32
2019-03-22T13:48:27.747Z,21.27
2019-03-22T13:50:55.928Z,19.45
2019-03-22T13:53:24.030Z,17.82
2019-03-22T13:55:51.924Z,19.48
2019-03-22T13:58:19.754Z,19.48
2019-03-22T14:00:47.959Z,20.90
2019-03-22T14:03:15.890Z,20.25
2019-03-22T14:05:43.801Z,17.98
2019-03-22T14:08:11.934Z,18.87
2019-03-22T14:10:40.090Z,23.22
2019-03-22T14:13:07.902Z,21.95
2019-03-22T14:15:36.277Z,19.55
2019-03-22T14:18:04.969Z,26.45
2019-03-22T14:20:33.112Z,22.27
2019-03-22T14:23:01.312Z,20.12
2019-03-22T14:25:29.115Z,21.15
2019-03-22T14:27:56.968Z,22.17
2019-03-22T14:30:25.110Z,18.67
2019-03-22T14:32:53.343Z,20.05
2019-03-22T14:35:21.187Z,21.50
2019-03-22T14:37:49.005Z,21.07
2019-03-22T14:40:17.513Z,21.52
2019-03-22T14:42:45.338Z,18.92
2019-03-22T14:45:13.767Z,19.45
2019-03-22T14:47:42.110Z,18.65
2019-03-22T14:50:10.354Z,20.25
2019-03-22T14:52:38.292Z,17.62
2019-03-22T14:55:06.441Z,16.23
2019-03-22T14:57:34.372Z,17.62
2019-03-22T15:00:02.434Z,19.57
2019-03-22T15:02:30.277Z,18.57
2019-03-22T15:04:58.092Z,16.85
2019-03-22T15:07:26.289Z,19.20
2019-03-22T15:09:54.435Z,20.92
2019-03-22T15:12:22.627Z,21.07
2019-03-22T15:15:04.012Z,22.22
2019-03-22T15:17:40.214Z,20.45
2019-03-22T15:20:39.941Z,15.78
2019-03-22T15:23:25.808Z,18.00
2019-03-22T15:26:12.085Z,19.90
2019-03-22T15:28:58.310Z,17.48
2019-03-22T15:32:03.462Z,20.25
2019-03-22T15:34:44.737Z,18.20
2019-03-22T15:40:03.320Z,19.00
2019-03-22T15:42:31.142Z,19.80
2019-03-22T15:44:59.579Z,21.05
2019-03-22T15:47:27.549Z,17.65
2019-03-22T15:49:55.731Z,17.30
2019-03-22T15:52:23.658Z,20.20
2019-03-22T15:54:51.577Z,19.65
2019-03-22T15:57:19.438Z,16.55
2019-03-22T15:59:47.298Z,26.30
2019-03-22T16:02:15.554Z,21.35
2019-03-22T16:04:43.498Z,25.00
2019-03-22T16:07:11.340Z,29.67
2019-03-22T16:09:39.331Z,23.15
2019-03-22T16:12:07.496Z,27.37
2019-03-22T16:14:35.318Z,28.70
2019-03-22T16:17:03.185Z,32.38
2019-03-22T16:19:31.350Z,24.15
2019-03-22T16:21:59.268Z,32.30
2019-03-22T16:24:27.104Z,27.77
2019-03-22T16:26:55.756Z,32.28
2019-03-22T16:29:23.604Z,35.60
2019-03-22T16:31:51.455Z,36.48
2019-03-22T16:34:19.366Z,38.98
2019-03-22T16:36:47.217Z,35.08
2019-03-22T16:39:15.157Z,43.78
2019-03-22T16:41:43.319Z,38.90
2019-03-22T16:44:11.206Z,43.70
2019-03-22T16:46:39.129Z,44.88
2019-03-22T16:49:07.515Z,40.83
2019-03-22T16:51:35.755Z,40.67
2019-03-22T16:54:04.180Z,40.28
2019-03-22T16:56:32.117Z,41.90
2019-03-22T16:59:00.058Z,38.63
2019-03-22T17:01:27.874Z,39.23
2019-03-22T17:04:04.106Z,40.43
2019-03-22T17:06:26.020Z,41.40
2019-03-22T17:08:53.980Z,39.13
2019-03-22T17:11:21.815Z,34.53
2019-03-22T17:13:49.632Z,42.50
2019-03-22T17:16:17.460Z,37.23
2019-03-22T17:18:45.691Z,36.40
2019-03-22T17:21:13.664Z,43.50
2019-03-22T17:23:41.561Z,38.00
2019-03-22T17:26:09.684Z,38.07
2019-03-22T17:28:39.864Z,35.73
2019-03-22T17:31:07.711Z,35.87
2019-03-22T17:33:35.524Z,38.23
2019-03-22T17:36:03.755Z,38.00
2019-03-22T17:38:32.251Z,40.60
2019-03-22T17:41:00.406Z,38.93
2019-03-22T17:43:28.263Z,36.53
2019-03-22T17:45:56.199Z,37.30
2019-03-22T17:48:24.137Z,39.07
2019-03-22T17:50:51.986Z,42.27
2019-03-22T17:53:19.997Z,43.63
2019-03-22T17:55:47.965Z,51.40
2019-03-22T17:58:15.843Z,58.90
2019-03-22T18:00:44.205Z,56.10
2019-03-22T18:03:12.208Z,63.27
2019-03-22T18:05:40.412Z,64.57
2019-03-22T18:08:08.532Z,69.03
2019-03-22T18:10:36.353Z,67.57
2019-03-22T18:13:04.777Z,70.50
2019-03-22T18:15:33.035Z,74.60
2019-03-22T18:18:00.940Z,74.03
2019-03-22T18:20:28.785Z,78.00
2019-03-22T18:22:59.502Z,87.87
2019-03-22T18:25:27.778Z,82.80
2019-03-22T18:27:55.785Z,81.03
2019-03-22T18:30:24.186Z,86.47
2019-03-22T18:32:52.703Z,97.17
2019-03-22T18:35:20.946Z,91.00
2019-03-22T18:37:48.859Z,90.77
2019-03-22T18:40:17.041Z,89.70
2019-03-22T18:42:45.407Z,97.77
2019-03-22T18:45:13.851Z,86.83
2019-03-22T18:47:42.065Z,92.70
2019-03-22T18:50:10.376Z,94.77
2019-03-22T18:52:38.370Z,102.87
2019-03-22T18:55:06.581Z,98.97
2019-03-22T18:57:34.444Z,95.23
2019-03-22T19:00:02.655Z,99.50
2019-03-22T19:02:30.857Z,106.27
2019-03-22T19:04:58.783Z,103.20
2019-03-22T19:07:27.970Z,117.70
2019-03-22T19:09:55.898Z,114.67
2019-03-22T19:12:24.126Z,116.80
2019-03-22T19:14:52.300Z,111.20
2019-03-22T19:17:20.154Z,115.53
2019-03-22T19:19:48.005Z,113.73
2019-03-22T19:22:16.127Z,133.10
2019-03-22T19:24:43.966Z,128.07
2019-03-22T19:27:12.123Z,134.03
2019-03-22T19:29:40.058Z,142.93
2019-03-22T19:32:13.216Z,162.50
2019-03-22T19:34:38.024Z,151.60
2019-03-22T19:37:05.925Z,156.17
2019-03-22T19:39:34.065Z,170.50
2019-03-22T19:42:01.934Z,159.33
2019-03-22T19:44:29.731Z,160.53
2019-03-22T19:46:57.473Z,165.23
2019-03-22T19:49:25.337Z,165.57
2019-03-22T19:51:53.274Z,164.87
2019-03-22T19:54:21.100Z,171.83
2019-03-22T19:56:49.260Z,168.83
2019-03-22T19:59:17.423Z,165.40
2019-03-22T20:01:45.343Z,168.17
2019-03-22T20:04:13.701Z,173.20
2019-03-22T20:06:41.556Z,170.27
2019-03-22T20:09:10.195Z,179.10
2019-03-22T20:11:38.245Z,193.80
2019-03-22T20:14:06.187Z,187.73
2019-03-22T20:16:34.020Z,193.93
2019-03-22T20:19:01.863Z,188.30
2019-03-22T20:21:30.092Z,193.50
2019-03-22T20:23:58.751Z,191.20
2019-03-22T20:26:26.601Z,195.10
2019-03-22T20:28:54.538Z,200.67
2019-03-22T20:31:22.375Z,190.17
2019-03-22T20:33:50.325Z,208.67
2019-03-22T20:36:21.062Z,204.40
2019-03-22T20:38:48.902Z,176.93
2019-03-22T20:41:16.856Z,211.10
2019-03-22T20:43:44.781Z,193.47
2019-03-22T20:46:12.622Z,189.80
2019-03-22T20:48:40.573Z,190.50
2019-03-22T20:51:08.521Z,193.90
2019-03-22T20:53:36.524Z,206.53
2019-03-22T20:56:04.387Z,196.67
2019-03-22T20:58:32.485Z,190.70
2019-03-22T21:01:00.630Z,215.43
2019-03-22T21:03:28.917Z,189.67
2019-03-22T21:05:57.042Z,193.67
2019-03-22T21:08:24.969Z,191.67
2019-03-22T21:10:53.192Z,208.50
2019-03-22T21:13:21.026Z,206.90
2019-03-22T21:15:48.940Z,197.13
2019-03-22T21:18:19.799Z,173.73
2019-03-22T21:20:47.726Z,202.90
2019-03-22T21:23:15.756Z,181.80
2019-03-22T21:25:43.497Z,173.20
2019-03-22T21:28:11.646Z,189.17
2019-03-22T21:30:39.609Z,171.27
2019-03-22T21:33:07.541Z,161.97
2019-03-22T21:35:37.477Z,154.50
2019-03-22T21:38:10.925Z,156.00
2019-03-22T21:40:35.019Z,153.50
2019-03-22T21:43:04.084Z,159.67
2019-03-22T21:45:31.944Z,156.87
2019-03-22T21:47:59.908Z,152.33
2019-03-22T21:50:28.024Z,170.00
2019-03-22T21:52:55.943Z,151.60
2019-03-22T21:55:23.895Z,156.70
2019-03-22T21:57:52.123Z,152.70
2019-03-22T22:00:20.338Z,151.63
2019-03-22T22:02:48.284Z,149.90
2019-03-22T22:05:16.200Z,150.90
2019-03-22T22:07:44.144Z,155.97
2019-03-22T22:10:12.372Z,145.30
2019-03-22T22:12:40.517Z,138.00
2019-03-22T22:15:13.985Z,142.10
2019-03-22T22:17:42.251Z,138.60
2019-03-22T22:20:11.030Z,136.77
2019-03-22T22:22:41.644Z,134.50
2019-03-22T22:25:09.541Z,126.10
2019-03-22T22:27:37.756Z,121.50
2019-03-22T22:30:06.429Z,129.87
2019-03-22T22:32:34.336Z,137.40
2019-03-22T22:35:02.494Z,134.10
2019-03-22T22:37:33.637Z,125.67
2019-03-22T22:40:01.470Z,129.27
2019-03-22T22:42:29.747Z,130.87
2019-03-22T22:44:57.971Z,129.33
2019-03-22T22:47:27.238Z,130.77
2019-03-22T22:49:55.925Z,130.73
2019-03-22T22:52:23.858Z,124.70
2019-03-22T22:54:52.124Z,123.13
2019-03-22T22:57:20.075Z,124.47
2019-03-22T22:59:48.215Z,122.60
2019-03-22T23:02:16.409Z,131.97
2019-03-22T23:04:44.261Z,127.67
2019-03-22T23:07:12.095Z,118.13
2019-03-22T23:09:39.941Z,120.03
2019-03-22T23:12:07.803Z,119.63
2019-03-22T23:14:35.676Z,119.90
2019-03-22T23:17:03.643Z,113.27
2019-03-22T23:19:31.484Z,116.33
2019-03-22T23:21:59.575Z,122.23
2019-03-22T23:24:27.403Z,115.33
2019-03-22T23:26:55.498Z,106.73
2019-03-22T23:29:23.353Z,114.83
2019-03-22T23:31:51.287Z,112.23
2019-03-22T23:34:19.094Z,110.90
2019-03-22T23:36:47.269Z,98.10
2019-03-22T23:39:15.177Z,102.87
2019-03-22T23:41:43.021Z,93.57
2019-03-22T23:44:11.177Z,94.67
2019-03-22T23:46:39.057Z,96.87
2019-03-22T23:49:06.957Z,92.87
2019-03-22T23:51:34.874Z,90.33
2019-03-22T23:54:03.082Z,88.97
2019-03-22T23:56:31.495Z,91.83
2019-03-22T23:58:59.426Z,90.63
